SV1LH-1 Melissia GR current weather conditions

sailwx.info

Wind from 202 at 2 knots gusting 6

Air temperature 26.1° C
Dewpoint 4.5° C

Last reported at 2017-Sep-22 11:10 UTC.
Time now 2017-Sep-22 12:00 UTC

Location: N 38°03' E 023°51'.
View on Google Maps.

See reports from other nearby stations

  
Tides and Currents Weather Stations Pressure Air Temp Water Temp Dewpoint Dewpoint Depression Visibility Wind Speed Wind Dir Waves Ship Positions
date/time (UTC)wind fromknots sea level pressurealtimeterstation pressurevisibilityair tempwater tempwave heightnotes
2017-Sep-22 11:10 202 2 gusting 6 26.1
2017-Sep-22 11:05 202 6 gusting 7 26.1
2017-Sep-22 11:00 202 3 gusting 6 25.6
2017-Sep-22 10:55 202 3 gusting 5 25.6
2017-Sep-22 10:50 270 5 gusting 6 26.1
2017-Sep-22 10:45 270 3 gusting 4 26.7
2017-Sep-22 10:40 26.1
2017-Sep-22 10:35 315 4 gusting 6 25.6
2017-Sep-22 10:30 315 3 gusting 6 25.6
2017-Sep-22 10:25 315 6 gusting 7 25.6
2017-Sep-22 10:20 315 1 gusting 2 25.6
2017-Sep-22 10:15 315 5 gusting 7 25.6
2017-Sep-22 10:10 292 6 gusting 7 25.6
2017-Sep-22 10:05 292 5 gusting 6 25.0
2017-Sep-22 10:00 270 3 gusting 4 25.0
2017-Sep-22 09:55 315 3 gusting 6 25.0
2017-Sep-22 09:50 315 6 gusting 8 25.0
2017-Sep-22 09:45 315 5 gusting 7 25.6
2017-Sep-22 09:40 247 4 gusting 6 26.1
2017-Sep-22 09:35 225 2 gusting 4 25.6
2017-Sep-22 09:30 270 5 gusting 7 26.1
2017-Sep-22 09:25 337 3 gusting 5 26.1
2017-Sep-22 09:20 270 5 gusting 6 26.1
2017-Sep-22 09:15 315 2 gusting 3 26.1
2017-Sep-22 09:10 022 3 gusting 5 26.1
2017-Sep-22 09:05 270 2 gusting 5 26.1
2017-Sep-22 09:00 270 3 gusting 6 26.1
2017-Sep-22 08:55 25.6
2017-Sep-22 08:50 315 3 gusting 6 26.1
2017-Sep-22 08:45 180 2 gusting 3 25.6
2017-Sep-22 08:40 270 2 gusting 4 25.0
2017-Sep-22 08:35 337 2 gusting 3 24.4
2017-Sep-22 08:30 292 4 gusting 6 25.0
2017-Sep-22 08:25 270 3 gusting 5 25.0
2017-Sep-22 08:20 292 5 gusting 6 24.4
2017-Sep-22 08:15 315 4 gusting 5 25.0
2017-Sep-22 08:10 225 0 gusting 1 25.6
2017-Sep-22 08:05 180 4 gusting 6 25.0
2017-Sep-22 08:00 270 3 gusting 5 25.0
2017-Sep-22 07:55 225 3 gusting 6 25.6
2017-Sep-22 07:50 247 1 gusting 3 25.0
2017-Sep-22 07:45 24.4
2017-Sep-22 07:40 270 3 gusting 6 24.4
2017-Sep-22 07:35 247 2 gusting 3 24.4
2017-Sep-22 07:30 337 2 gusting 6 24.4
2017-Sep-22 07:25 270 1 gusting 2 23.9
2017-Sep-22 07:20 23.9
2017-Sep-22 07:15 022 1 gusting 3 23.3
2017-Sep-22 07:10 292 1 gusting 2 22.8
2017-Sep-22 07:05 292 6 gusting 8 22.8
2017-Sep-22 07:00 292 5 gusting 6 22.2
2017-Sep-22 06:55 247 3 gusting 5 22.2
2017-Sep-22 06:50 337 3 gusting 4 22.2
2017-Sep-22 06:45 337 2 gusting 4 22.2
2017-Sep-22 06:40 315 1 gusting 2 21.7
2017-Sep-22 06:35 270 3 gusting 5 21.7
2017-Sep-22 06:30 315 6 gusting 10 21.7
2017-Sep-22 06:25 315 4 gusting 6 21.1
2017-Sep-22 06:20 292 4 gusting 6 21.1
2017-Sep-22 06:15 315 2 gusting 4 21.1
2017-Sep-22 06:10 337 3 gusting 5 21.1
2017-Sep-22 06:05 247 3 gusting 6 21.1
2017-Sep-22 06:00 247 1 gusting 1 21.1
2017-Sep-22 05:55 270 4 gusting 6 21.1
2017-Sep-22 05:50 337 1 gusting 2 20.6
2017-Sep-22 05:45 270 1 gusting 2 20.0
2017-Sep-22 05:40 247 0 gusting 1 20.0
2017-Sep-22 05:35 292 0 gusting 0 19.4
2017-Sep-22 05:30 315 3 gusting 5 19.4
2017-Sep-22 05:25 292 0 gusting 1 18.9
2017-Sep-22 05:20 292 0 gusting 1 18.9
2017-Sep-22 05:15 292 1 gusting 4 18.3
2017-Sep-22 05:10 292 1 gusting 2 18.3
2017-Sep-22 05:05 315 17.8
2017-Sep-22 05:00 315 0 gusting 0 16.7
2017-Sep-22 04:55 16.1
2017-Sep-22 04:50 292 0 gusting 1 15.6
2017-Sep-22 04:45 247 0 gusting 3 14.4
2017-Sep-22 04:40 315 1 gusting 2 14.4
2017-Sep-22 04:35 337 1 gusting 2 14.4
2017-Sep-22 04:30 14.4
2017-Sep-22 04:25 14.4
2017-Sep-22 04:20 337 2 gusting 4 14.4
2017-Sep-22 04:15 337 1 gusting 2 14.4
2017-Sep-22 04:10 315 1 gusting 1 14.4
2017-Sep-22 04:05 14.4
2017-Sep-22 04:00 14.4
2017-Sep-22 03:55 022 1 gusting 2 14.4
2017-Sep-22 03:50 292 1 gusting 2 14.4
2017-Sep-22 03:45 337 0 gusting 1 14.4
2017-Sep-22 03:40 022 2 gusting 3 14.4
2017-Sep-22 03:35 022 1 gusting 2 14.4
2017-Sep-22 03:30 14.4
2017-Sep-22 03:25 15.0
2017-Sep-22 03:20 14.4
2017-Sep-22 03:15 14.4
2017-Sep-22 03:10 14.4
2017-Sep-22 03:05 067 1 gusting 2 15.0
2017-Sep-22 03:00 022 2 gusting 3 15.0
2017-Sep-22 02:55 15.0
2017-Sep-22 02:50 15.0
2017-Sep-22 02:45 15.0
2017-Sep-22 02:40 045 2 gusting 4 15.0
2017-Sep-22 02:35 022 1 gusting 2 15.0
2017-Sep-22 02:30 15.6
2017-Sep-22 02:25 15.0
2017-Sep-22 02:20 15.6
2017-Sep-22 02:15 15.6
2017-Sep-22 02:10 315 1 gusting 3 15.6
2017-Sep-22 02:05 15.6
2017-Sep-22 02:00 022 1 gusting 2 15.6
2017-Sep-22 01:55 315 0 gusting 1 15.6
2017-Sep-22 01:50 022 1 gusting 3 15.6
2017-Sep-22 01:45 15.6
2017-Sep-22 01:40 16.1
2017-Sep-22 01:35 067 2 gusting 3 16.1
2017-Sep-22 01:30 337 4 gusting 5 16.1
2017-Sep-22 01:25 337 2 gusting 3 16.1
2017-Sep-22 01:20 315 3 gusting 5 15.6
2017-Sep-22 01:15 337 2 gusting 4 15.6
2017-Sep-22 01:10 337 3 gusting 5 15.6
2017-Sep-22 01:05 15.0
2017-Sep-22 01:00 022 2 gusting 3 15.0
2017-Sep-22 00:55 045 2 gusting 4 14.4
2017-Sep-22 00:50 337 1 gusting 3 14.4
2017-Sep-22 00:45 337 1 gusting 3 13.9
2017-Sep-22 00:40 337 1 gusting 2 13.9
2017-Sep-22 00:35 337 1 gusting 2 13.3
2017-Sep-22 00:30 13.3
2017-Sep-22 00:25 13.3
2017-Sep-22 00:20 067 0 gusting 1 13.3
2017-Sep-22 00:15 112 0 gusting 0 13.3
2017-Sep-22 00:10 067 13.3
2017-Sep-22 00:05 022 13.9
2017-Sep-22 00:00 090 0 gusting 0 13.9
2017-Sep-21 23:55 112 0 gusting 0 13.9
2017-Sep-21 23:50 090 13.9
2017-Sep-21 23:45 067 13.9
2017-Sep-21 23:40 090 1 gusting 1 13.9
2017-Sep-21 23:35 112 1 gusting 2 13.9
2017-Sep-21 23:30 090 0 gusting 1 13.9
2017-Sep-21 23:25 067 0 gusting 1 13.9
2017-Sep-21 23:20 090 0 gusting 1 13.9
2017-Sep-21 23:15 180 13.9
2017-Sep-21 23:10 022 0 gusting 0 13.9
2017-Sep-21 23:05 067 13.9
2017-Sep-21 23:00 225 0 gusting 0 13.9
2017-Sep-21 22:55 112 14.4
2017-Sep-21 22:50 045 14.4
2017-Sep-21 22:45 112 0 gusting 0 14.4
2017-Sep-21 22:40 090 0 gusting 1 14.4
2017-Sep-21 22:35 202 14.4
2017-Sep-21 22:30 112 14.4
2017-Sep-21 22:25 15.0
2017-Sep-21 22:20 045 15.0
2017-Sep-21 22:15 022 15.0
2017-Sep-21 22:10 202 0 gusting 1 14.4
2017-Sep-21 22:05 157 0 gusting 1 14.4
2017-Sep-21 22:00 112 15.0
2017-Sep-21 21:55 157 0 gusting 0 15.0
2017-Sep-21 21:50 202 15.0
2017-Sep-21 21:45 315 15.0
2017-Sep-21 21:40 15.6
2017-Sep-21 21:35 112 0 gusting 1 15.6
2017-Sep-21 21:30 112 1 gusting 2 15.6
2017-Sep-21 21:25 090 2 gusting 3 15.6
2017-Sep-21 21:20 090 3 gusting 3 15.6
2017-Sep-21 21:15 090 2 gusting 3 15.6
2017-Sep-21 21:10 045 0 gusting 1 16.1
2017-Sep-21 21:05 112 1 gusting 2 16.1
2017-Sep-21 21:00 090 4 gusting 6 16.1
2017-Sep-21 20:55 067 16.1
2017-Sep-21 20:50 045 0 gusting 1 16.7
2017-Sep-21 20:45 292 2 gusting 4 16.1
2017-Sep-21 20:40 270 2 gusting 3 16.1
2017-Sep-21 20:35 022 0 gusting 0 16.1
2017-Sep-21 20:30 337 0 gusting 0 16.1
2017-Sep-21 20:25 202 0 gusting 0 16.7
2017-Sep-21 20:20 270 16.7
2017-Sep-21 20:15 090 0 gusting 1 16.7
2017-Sep-21 20:10 045 16.7
2017-Sep-21 20:05 112 16.7
2017-Sep-21 20:00 16.7
2017-Sep-21 19:55 17.2
2017-Sep-21 19:50 337 17.2
2017-Sep-21 19:45 022 2 gusting 3 17.2
2017-Sep-21 19:40 337 1 gusting 1 17.2
2017-Sep-21 19:35 270 2 gusting 3 17.2
2017-Sep-21 19:30 17.2
2017-Sep-21 19:25 022 1 gusting 2 17.2
2017-Sep-21 19:20 337 1 gusting 2 17.2
2017-Sep-21 19:15 315 0 gusting 1 17.2
2017-Sep-21 19:10 247 0 gusting 1 17.2
2017-Sep-21 19:05 337 17.2
2017-Sep-21 19:00 337 0 gusting 0 17.2
2017-Sep-21 18:55 315 1 gusting 2 17.2
2017-Sep-21 18:50 292 0 gusting 2 17.8
2017-Sep-21 18:45 292 0 gusting 1 17.8
2017-Sep-21 18:40 17.8
2017-Sep-21 18:35 270 0 gusting 2 17.8
2017-Sep-21 18:30 292 0 gusting 2 17.8
2017-Sep-21 18:25 270 1 gusting 3 17.8
2017-Sep-21 18:20 315 0 gusting 1 17.8
2017-Sep-21 18:15 292 2 gusting 3 17.8
2017-Sep-21 18:09 337 0 gusting 1 17.8
2017-Sep-21 18:05 315 1 gusting 2 17.8
2017-Sep-21 18:00 18.3
2017-Sep-21 17:55 022 0 gusting 1 18.3
2017-Sep-21 17:50 337 2 gusting 4 18.3
2017-Sep-21 17:45 315 2 gusting 4 18.3
2017-Sep-21 17:40 315 3 gusting 5 18.3
2017-Sep-21 17:35 337 2 gusting 5 18.3
2017-Sep-21 17:30 270 4 gusting 6 18.9
2017-Sep-21 17:25 292 2 gusting 3 18.9
2017-Sep-21 17:20 337 3 gusting 6 18.9
2017-Sep-21 17:15 292 4 gusting 6 18.9
2017-Sep-21 17:10 292 3 gusting 6 18.9
2017-Sep-21 17:05 292 6 gusting 10 18.9
2017-Sep-21 17:00 292 6 gusting 8 19.4
2017-Sep-21 16:55 315 4 gusting 7 19.4
2017-Sep-21 16:50 337 6 gusting 11 19.4
2017-Sep-21 16:45 270 5 gusting 9 19.4
2017-Sep-21 16:40 292 6 gusting 11 20.0
2017-Sep-21 16:35 292 5 gusting 7 20.0
2017-Sep-21 16:30 247 7 gusting 13 20.0
2017-Sep-21 16:25 270 4 gusting 6 20.6
2017-Sep-21 16:20 20.6
2017-Sep-21 16:15 225 5 gusting 6 21.1
2017-Sep-21 16:10 292 6 gusting 8 21.1
2017-Sep-21 16:05 247 3 gusting 5 21.7
2017-Sep-21 16:00 292 8 gusting 13 21.7
2017-Sep-21 15:55 292 6 gusting 11 22.2
2017-Sep-21 15:50 315 7 gusting 11 22.2
2017-Sep-21 15:45 315 8 gusting 15 22.2
2017-Sep-21 15:40 247 7 gusting 11 22.8
2017-Sep-21 15:35 270 11 gusting 16 22.8
2017-Sep-21 15:30 270 7 gusting 13 22.8
2017-Sep-21 15:25 337 6 gusting 9 23.3
2017-Sep-21 15:20 270 9 gusting 16 23.3
2017-Sep-21 15:15 292 10 gusting 13 23.9
2017-Sep-21 15:10 270 7 gusting 13 23.9
2017-Sep-21 15:05 315 5 gusting 8 23.3
2017-Sep-21 15:00 292 4 gusting 6 22.8
2017-Sep-21 14:55 22.8
2017-Sep-21 14:50 315 4 gusting 6 23.3
2017-Sep-21 14:45 315 6 gusting 6 23.3
2017-Sep-21 14:40 270 8 gusting 12 23.9
2017-Sep-21 14:35 292 6 gusting 12 24.4
2017-Sep-21 14:30 247 9 gusting 15 25.0
2017-Sep-21 14:25 337 7 gusting 12 25.0
2017-Sep-21 14:20 270 7 gusting 10 25.0
2017-Sep-21 14:15 315 9 gusting 16 25.0
2017-Sep-21 14:10 270 8 gusting 13 25.0
2017-Sep-21 14:05 202 6 gusting 11 25.6
2017-Sep-21 14:00 315 8 gusting 14 25.6
2017-Sep-21 13:55 247 9 gusting 16 25.6
2017-Sep-21 13:50 270 6 gusting 9 25.6
2017-Sep-21 13:45 292 9 gusting 13 26.1
2017-Sep-21 13:40 270 7 gusting 13 26.1
2017-Sep-21 13:35 247 8 gusting 13 26.1
2017-Sep-21 13:30 315 7 gusting 12 26.1
2017-Sep-21 13:25 315 9 gusting 13 26.1
2017-Sep-21 13:20 270 6 gusting 10 26.1
2017-Sep-21 13:15 315 7 gusting 10 26.1
2017-Sep-21 13:10 225 7 gusting 13 26.1
2017-Sep-21 13:05 292 7 gusting 12 26.1
2017-Sep-21 13:00 315 6 gusting 11 26.1
2017-Sep-21 12:55 270 8 gusting 12 26.7
2017-Sep-21 12:50 247 6 gusting 13 26.7
2017-Sep-21 12:45 292 7 gusting 9 26.7
2017-Sep-21 12:40 292 5 gusting 10 26.7
2017-Sep-21 12:35 270 9 gusting 13 26.7
2017-Sep-21 12:30 225 7 gusting 11 27.2
2017-Sep-21 12:25 225 6 gusting 10 27.2
2017-Sep-21 12:20 315 7 gusting 11 27.8
2017-Sep-21 12:15 315 4 gusting 7 27.8
2017-Sep-21 12:10 337 3 gusting 6 27.2
2017-Sep-21 12:05 225 6 gusting 10 27.2
2017-Sep-21 12:00 247 5 gusting 7 27.2
2017-Sep-21 11:55 247 5 gusting 11 26.7
2017-Sep-21 11:50 292 5 gusting 8 26.7
2017-Sep-21 11:45 270 8 gusting 13 26.7
2017-Sep-21 11:40 315 8 gusting 12 26.7
2017-Sep-21 11:35 247 9 gusting 12 26.1
2017-Sep-21 11:30 315 9 gusting 14 26.1
2017-Sep-21 11:25 292 6 gusting 13 26.7
2017-Sep-21 11:20 135 6 gusting 12 26.7
2017-Sep-21 11:15 247 9 gusting 11 26.7
2017-Sep-21 11:10 270 7 gusting 11 26.7
2017-Sep-21 11:05 292 7 gusting 12 27.2
2017-Sep-21 11:00 315 3 gusting 6 27.2
2017-Sep-21 10:55 270 6 gusting 12 27.2
2017-Sep-21 10:50 247 5 gusting 6 27.2
2017-Sep-21 10:45 270 5 gusting 6 26.1
2017-Sep-21 10:40 270 8 gusting 13 26.1
2017-Sep-21 10:35 292 8 gusting 11 26.1
2017-Sep-21 10:29 292 8 gusting 10 26.7
2017-Sep-21 10:25 315 6 gusting 11 26.1
2017-Sep-21 10:20 270 6 gusting 13 26.1
2017-Sep-21 10:15 270 7 gusting 13 26.1
2017-Sep-21 10:10 247 13 gusting 16 26.1
2017-Sep-21 10:05 315 4 gusting 8 26.1
2017-Sep-21 10:00 270 6 gusting 10 25.6
2017-Sep-21 09:55 292 8 gusting 13 25.6
2017-Sep-21 09:50 270 8 gusting 12 25.6
2017-Sep-21 09:45 247 10 gusting 13 25.6
2017-Sep-21 09:40 270 7 gusting 15 26.1
2017-Sep-21 09:35 292 8 gusting 13 26.1
2017-Sep-21 09:30 270 9 gusting 17 26.7
2017-Sep-21 09:25 270 7 gusting 12 26.7
2017-Sep-21 09:20 247 6 gusting 8 26.1
2017-Sep-21 09:15 292 7 gusting 13 26.1
2017-Sep-21 09:10 270 6 gusting 10 26.1
2017-Sep-21 09:05 292 6 gusting 8 26.1
2017-Sep-21 09:00 292 6 gusting 10 26.1
2017-Sep-21 08:55 270 5 gusting 8 25.6
2017-Sep-21 08:50 247 6 gusting 9 25.6
2017-Sep-21 08:45 270 7 gusting 11 25.6
2017-Sep-21 08:40 270 4 gusting 6 26.1
2017-Sep-21 08:35 247 4 gusting 6 25.6
2017-Sep-21 08:30 292 5 gusting 8 25.6
2017-Sep-21 08:25 067 4 gusting 9 25.6
2017-Sep-21 08:20 090 6 gusting 10 25.6
2017-Sep-21 08:15 225 3 gusting 6 25.6
2017-Sep-21 08:10 247 7 gusting 11 25.6
2017-Sep-21 08:05 270 6 gusting 9 25.6
2017-Sep-21 08:00 315 5 gusting 11 25.0
2017-Sep-21 07:55 292 10 gusting 13 25.6
2017-Sep-21 07:50 315 6 gusting 8 25.6
2017-Sep-21 07:45 270 6 gusting 10 25.0
2017-Sep-21 07:40 315 7 gusting 11 25.0
2017-Sep-21 07:35 315 5 gusting 6 25.0
2017-Sep-21 07:30 292 6 gusting 10 25.0
2017-Sep-21 07:25 202 6 gusting 9 25.0
2017-Sep-21 07:20 315 6 gusting 11 25.0
2017-Sep-21 07:15 270 3 gusting 5 25.0
2017-Sep-21 07:10 247 5 gusting 7 24.4
2017-Sep-21 07:05 225 7 gusting 12 24.4
2017-Sep-21 07:00 270 5 gusting 6 24.4
2017-Sep-21 06:55 315 3 gusting 6 24.4
2017-Sep-21 06:50 270 5 gusting 10 24.4
2017-Sep-21 06:45 270 4 gusting 6 23.9
2017-Sep-21 06:40 315 6 gusting 6 23.9
2017-Sep-21 06:35 337 3 gusting 5 23.9
2017-Sep-21 06:30 270 5 gusting 6 23.9
2017-Sep-21 06:25 270 3 gusting 4 23.9
2017-Sep-21 06:20 247 2 gusting 5 23.3
2017-Sep-21 06:15 315 3 gusting 6 23.3
2017-Sep-21 06:10 270 3 gusting 6 22.8
2017-Sep-21 06:05 292 1 gusting 3 22.8
2017-Sep-21 06:00 292 3 gusting 6 22.8
2017-Sep-21 05:55 292 2 gusting 4 22.8
2017-Sep-21 05:50 315 2 gusting 3 22.8
2017-Sep-21 05:45 337 2 gusting 3 22.2
2017-Sep-21 05:40 045 21.7
2017-Sep-21 05:35 045 1 gusting 3 21.7
2017-Sep-21 05:30 21.7
2017-Sep-21 05:24 21.1
2017-Sep-21 05:20 20.6
2017-Sep-21 05:15 337 1 gusting 3 20.0
2017-Sep-21 05:10 20.0
2017-Sep-21 05:05 292 0 gusting 0 19.4
2017-Sep-21 05:00 022 0 gusting 1 18.3
2017-Sep-21 04:55 022 1 gusting 2 17.8
2017-Sep-21 04:50 292 1 gusting 2 17.2
2017-Sep-21 04:45 337 1 gusting 1 16.1
2017-Sep-21 04:40 15.6
2017-Sep-21 04:35 15.6
2017-Sep-21 04:30 225 15.6
2017-Sep-21 04:25 090 15.6
2017-Sep-21 04:20 247 15.6
2017-Sep-21 04:15 045 15.6
2017-Sep-21 04:10 315 15.6
2017-Sep-21 04:05 022 15.6
2017-Sep-21 04:00 202 2 gusting 5 15.6
2017-Sep-21 03:55 090 15.6
2017-Sep-21 03:50 16.1
2017-Sep-21 03:45 16.1
2017-Sep-21 03:40 337 0 gusting 1 16.1
2017-Sep-21 03:35 16.1
2017-Sep-21 03:30 315 0 gusting 1 16.1
2017-Sep-21 03:25 337 1 gusting 2 16.1
2017-Sep-21 03:20 16.1
2017-Sep-21 03:15 315 16.7
2017-Sep-21 03:10 16.7
2017-Sep-21 03:05 022 1 gusting 2 16.7
2017-Sep-21 03:00 045 3 gusting 5 16.7
2017-Sep-21 02:55 270 2 gusting 5 16.7
2017-Sep-21 02:50 16.1
2017-Sep-21 02:45 045 1 gusting 2 16.1
2017-Sep-21 02:40 022 1 gusting 2 16.1
2017-Sep-21 02:35 022 0 gusting 1 16.7
2017-Sep-21 02:30 292 0 gusting 1 16.7
2017-Sep-21 02:25 270 16.7
2017-Sep-21 02:20 315 0 gusting 1 17.2
2017-Sep-21 02:15 247 0 gusting 1 17.8
2017-Sep-21 02:10 247 2 gusting 4 17.8
2017-Sep-21 02:05 292 4 gusting 6 17.8
2017-Sep-21 02:00 292 2 gusting 4 17.8
2017-Sep-21 01:55 270 3 gusting 4 17.8
2017-Sep-21 01:50 270 3 gusting 5 18.3
2017-Sep-21 01:45 247 4 gusting 6 18.3
2017-Sep-21 01:40 292 6 gusting 10 18.3
2017-Sep-21 01:35 270 5 gusting 7 18.3
2017-Sep-21 01:30 247 5 gusting 10 17.8
2017-Sep-21 01:25 270 0 gusting 2 17.8
2017-Sep-21 01:20 315 3 gusting 6 17.8
2017-Sep-21 01:15 315 2 gusting 3 17.8
2017-Sep-21 01:10 315 0 gusting 1 17.8
2017-Sep-21 01:05 337 1 gusting 1 17.8
2017-Sep-21 01:00 270 1 gusting 2 17.8
2017-Sep-21 00:55 270 0 gusting 1 18.3
2017-Sep-21 00:50 18.3
2017-Sep-21 00:45 315 2 gusting 3 18.3
2017-Sep-21 00:40 270 1 gusting 3 18.3
2017-Sep-21 00:35 247 1 gusting 1 18.3
2017-Sep-21 00:30 270 4 gusting 6 18.3
2017-Sep-21 00:25 270 2 gusting 4 18.3
2017-Sep-21 00:20 315 3 gusting 6 18.3
2017-Sep-21 00:15 315 1 gusting 3 18.9
2017-Sep-21 00:10 292 2 gusting 5 18.9
2017-Sep-21 00:05 292 3 gusting 6 18.9
2017-Sep-21 00:00 292 3 gusting 6 18.9
2017-Sep-20 23:55 247 1 gusting 3 18.9
2017-Sep-20 23:50 225 3 gusting 5 18.9
2017-Sep-20 23:45 247 3 gusting 4 18.9
2017-Sep-20 23:40 270 2 gusting 5 18.9
2017-Sep-20 23:35 270 2 gusting 3 18.9
2017-Sep-20 23:30 270 2 gusting 4 18.9
2017-Sep-20 23:25 202 1 gusting 2 19.4
2017-Sep-20 23:20 315 2 gusting 4 19.4
2017-Sep-20 23:15 270 1 gusting 3 19.4
2017-Sep-20 23:10 270 1 gusting 3 19.4
2017-Sep-20 23:05 270 2 gusting 4 19.4
2017-Sep-20 23:00 202 2 gusting 3 19.4
2017-Sep-20 22:55 247 4 gusting 5 20.0
2017-Sep-20 22:50 270 3 gusting 5 20.0
2017-Sep-20 22:45 315 3 gusting 4 20.0
2017-Sep-20 22:40 247 3 gusting 6 20.0
2017-Sep-20 22:35 270 3 gusting 5 20.0
2017-Sep-20 22:30 247 2 gusting 4 20.0
2017-Sep-20 22:25 292 3 gusting 5 20.0
2017-Sep-20 22:20 270 4 gusting 7 20.0
2017-Sep-20 22:15 315 6 gusting 8 20.0
2017-Sep-20 22:10 292 5 gusting 7 20.0
2017-Sep-20 22:05 270 4 gusting 6 20.6
2017-Sep-20 22:00 292 2 gusting 5 20.6
2017-Sep-20 21:55 247 2 gusting 3 20.6
2017-Sep-20 21:50 225 5 gusting 10 20.6
2017-Sep-20 21:45 292 3 gusting 5 20.6
2017-Sep-20 21:40 247 3 gusting 5 20.6
2017-Sep-20 21:35 315 6 gusting 7 20.6
2017-Sep-20 21:30 315 6 gusting 10 20.6
2017-Sep-20 21:25 270 3 gusting 6 20.6
2017-Sep-20 21:20 270 7 gusting 10 20.6
2017-Sep-20 21:15 315 3 gusting 4 20.6
2017-Sep-20 21:10 292 5 gusting 6 20.6
2017-Sep-20 21:05 247 2 gusting 6 20.6
2017-Sep-20 21:00 270 4 gusting 6 20.6
2017-Sep-20 20:55 270 2 gusting 4 21.1
2017-Sep-20 20:50 270 6 gusting 10 21.1
2017-Sep-20 20:45 315 4 gusting 7 21.1
2017-Sep-20 20:40 270 5 gusting 7 21.1
2017-Sep-20 20:35 315 4 gusting 6 21.1
2017-Sep-20 20:30 270 6 gusting 9 21.1
2017-Sep-20 20:25 315 5 gusting 9 21.1
2017-Sep-20 20:20 292 7 gusting 12 21.1
2017-Sep-20 20:15 337 3 gusting 6 21.1
2017-Sep-20 20:10 247 6 gusting 8 21.1
2017-Sep-20 20:05 21.1
2017-Sep-20 20:00 270 5 gusting 7 21.7
2017-Sep-20 19:55 270 5 gusting 6 21.7
2017-Sep-20 19:50 292 4 gusting 6 21.7
2017-Sep-20 19:45 225 2 gusting 4 21.7
2017-Sep-20 19:40 270 3 gusting 5 21.7
2017-Sep-20 19:35 270 3 gusting 5 21.7
2017-Sep-20 19:30 315 5 gusting 6 21.7
2017-Sep-20 19:25 292 4 gusting 6 21.7
2017-Sep-20 19:20 247 5 gusting 6 22.2
2017-Sep-20 19:15 315 3 gusting 5 22.2
2017-Sep-20 19:10 270 5 gusting 7 22.2
2017-Sep-20 19:05 315 2 gusting 3 22.2
2017-Sep-20 19:00 270 3 gusting 4 22.2
2017-Sep-20 18:55 202 6 gusting 7 22.2
2017-Sep-20 18:50 315 3 gusting 5 22.2
2017-Sep-20 18:45 292 4 gusting 6 22.8
2017-Sep-20 18:40 292 3 gusting 6 22.8
2017-Sep-20 18:35 270 5 gusting 6 22.8
2017-Sep-20 18:30 292 3 gusting 6 22.8
2017-Sep-20 18:25 270 6 gusting 7 22.8
2017-Sep-20 18:20 292 5 gusting 8 22.8
2017-Sep-20 18:15 247 7 gusting 11 22.8
2017-Sep-20 18:10 247 3 gusting 5 22.8
2017-Sep-20 18:05 270 4 gusting 6 22.8
2017-Sep-20 18:00 247 3 gusting 6 22.8
2017-Sep-20 17:55 270 4 gusting 6 23.3
2017-Sep-20 17:50 270 3 gusting 5 23.3
2017-Sep-20 17:45 270 4 gusting 6 23.3
2017-Sep-20 17:40 315 5 gusting 6 23.3
2017-Sep-20 17:35 247 5 gusting 8 23.3
2017-Sep-20 17:30 247 6 gusting 10 23.3
2017-Sep-20 17:25 292 5 gusting 8 23.9
2017-Sep-20 17:20 270 6 gusting 10 23.9
2017-Sep-20 17:15 315 2 gusting 4 23.9
2017-Sep-20 17:10 270 6 gusting 9 23.9
2017-Sep-20 17:05 247 4 gusting 6 23.9
2017-Sep-20 17:00 270 4 gusting 6 23.9
2017-Sep-20 16:55 270 4 gusting 6 23.9
2017-Sep-20 16:50 112 5 gusting 8 23.9
2017-Sep-20 16:45 247 3 gusting 3 23.9
2017-Sep-20 16:40 270 0 gusting 0 24.4
2017-Sep-20 16:35 135 0 gusting 1 24.4
2017-Sep-20 16:30 315 2 gusting 3 24.4
2017-Sep-20 16:25 225 3 gusting 4 25.0
2017-Sep-20 16:20 202 1 gusting 1 25.0
2017-Sep-20 16:15 292 2 gusting 4 25.6
2017-Sep-20 16:10 315 0 gusting 2 25.6
2017-Sep-20 16:05 26.1
2017-Sep-20 16:00 247 3 gusting 6 26.7
2017-Sep-20 15:55 247 3 gusting 6 26.7
2017-Sep-20 15:50 292 0 gusting 1 27.2
2017-Sep-20 15:45 202 1 gusting 3 27.2
2017-Sep-20 15:40 225 3 gusting 5 27.2
2017-Sep-20 15:35 225 3 gusting 5 27.8
2017-Sep-20 15:30 225 3 gusting 6 27.8
2017-Sep-20 15:25 112 3 gusting 5 27.8
2017-Sep-20 15:20 202 5 gusting 6 27.8
2017-Sep-20 15:15 270 5 gusting 7 28.3
2017-Sep-20 15:10 247 4 gusting 8 28.3
2017-Sep-20 15:05 315 2 gusting 4 28.9
2017-Sep-20 15:00 292 4 gusting 6 29.4
2017-Sep-20 14:55 247 5 gusting 6 29.4
2017-Sep-20 14:50 270 2 gusting 4 30.0
2017-Sep-20 14:45 270 4 gusting 6 30.0
2017-Sep-20 14:40 225 4 gusting 6 30.0
2017-Sep-20 14:35 270 3 gusting 5 30.0
2017-Sep-20 14:30 270 5 gusting 8 30.0
2017-Sep-20 14:25 292 5 gusting 8 30.6
2017-Sep-20 14:20 247 4 gusting 7 30.6
2017-Sep-20 14:15 225 4 gusting 7 31.1
2017-Sep-20 14:10 270 5 gusting 7 31.1
2017-Sep-20 14:05 225 2 gusting 6 31.1
2017-Sep-20 14:00 202 5 gusting 6 31.7
2017-Sep-20 13:55 225 5 gusting 6 31.7
2017-Sep-20 13:50 247 4 gusting 7 31.7
2017-Sep-20 13:45 225 5 gusting 6 31.7
2017-Sep-20 13:40 270 3 gusting 6 31.7
2017-Sep-20 13:35 315 3 gusting 5 31.7
2017-Sep-20 13:30 202 5 gusting 6 31.7
2017-Sep-20 13:25 315 5 gusting 7 31.1
2017-Sep-20 13:20 247 6 gusting 8 31.7
2017-Sep-20 13:15 202 4 gusting 7 31.7
2017-Sep-20 13:10 202 6 gusting 8 31.7
2017-Sep-20 13:05 270 4 gusting 6 31.7
2017-Sep-20 13:00 270 5 gusting 8 31.7
2017-Sep-20 12:55 225 4 gusting 7 31.7
2017-Sep-20 12:50 202 5 gusting 7 31.7
2017-Sep-20 12:45 180 6 gusting 9 31.7
2017-Sep-20 12:40 225 6 gusting 10 32.2
2017-Sep-20 12:35 225 4 gusting 9 32.2
2017-Sep-20 12:30 270 2 gusting 3 32.2
2017-Sep-20 12:25 225 2 gusting 4 31.7
2017-Sep-20 12:20 315 4 gusting 6 31.7
2017-Sep-20 12:15 225 5 gusting 8 32.2
2017-Sep-20 12:10 225 6 gusting 9 32.2
2017-Sep-20 12:05 225 4 gusting 5 32.2
2017-Sep-20 12:00 202 4 gusting 6 32.2